sensor_id;sensor_type;location;lat;lon;timestamp;P1;durP1;ratioP1;P2;durP2;ratioP2
8777;SDS011;4425;50.872;4.712;2023-03-11T00:02:21;7.45;;;3.80;;
8777;SDS011;4425;50.872;4.712;2023-03-11T00:04:49;7.28;;;3.60;;
8777;SDS011;4425;50.872;4.712;2023-03-11T00:07:16;8.50;;;3.90;;
8777;SDS011;4425;50.872;4.712;2023-03-11T00:09:43;9.85;;;4.05;;
8777;SDS011;4425;50.872;4.712;2023-03-11T00:12:12;5.85;;;3.83;;
8777;SDS011;4425;50.872;4.712;2023-03-11T00:14:39;10.73;;;4.07;;
8777;SDS011;4425;50.872;4.712;2023-03-11T00:17:08;10.15;;;3.83;;
8777;SDS011;4425;50.872;4.712;2023-03-11T00:19:35;7.55;;;3.72;;
8777;SDS011;4425;50.872;4.712;2023-03-11T00:22:03;9.80;;;3.80;;
8777;SDS011;4425;50.872;4.712;2023-03-11T00:24:31;6.90;;;3.83;;
8777;SDS011;4425;50.872;4.712;2023-03-11T00:26:59;11.05;;;4.45;;
8777;SDS011;4425;50.872;4.712;2023-03-11T00:29:26;9.48;;;4.10;;
8777;SDS011;4425;50.872;4.712;2023-03-11T00:31:53;10.13;;;3.90;;
8777;SDS011;4425;50.872;4.712;2023-03-11T00:34:20;9.27;;;4.07;;
8777;SDS011;4425;50.872;4.712;2023-03-11T00:36:47;9.88;;;4.15;;
8777;SDS011;4425;50.872;4.712;2023-03-11T00:39:15;9.60;;;4.10;;
8777;SDS011;4425;50.872;4.712;2023-03-11T00:41:44;7.47;;;3.90;;
8777;SDS011;4425;50.872;4.712;2023-03-11T00:44:10;10.18;;;4.13;;
8777;SDS011;4425;50.872;4.712;2023-03-11T00:46:37;11.13;;;4.15;;
8777;SDS011;4425;50.872;4.712;2023-03-11T00:49:05;10.75;;;4.30;;
8777;SDS011;4425;50.872;4.712;2023-03-11T00:51:33;8.60;;;4.30;;
8777;SDS011;4425;50.872;4.712;2023-03-11T00:54:01;7.53;;;3.92;;
8777;SDS011;4425;50.872;4.712;2023-03-11T00:56:33;9.25;;;4.20;;
8777;SDS011;4425;50.872;4.712;2023-03-11T00:59:03;6.82;;;3.70;;
8777;SDS011;4425;50.872;4.712;2023-03-11T01:01:30;8.40;;;4.20;;
8777;SDS011;4425;50.872;4.712;2023-03-11T01:03:57;8.03;;;4.03;;
8777;SDS011;4425;50.872;4.712;2023-03-11T01:06:24;7.97;;;3.92;;
8777;SDS011;4425;50.872;4.712;2023-03-11T01:08:51;9.88;;;4.15;;
8777;SDS011;4425;50.872;4.712;2023-03-11T01:11:18;9.13;;;3.95;;
8777;SDS011;4425;50.872;4.712;2023-03-11T01:13:48;9.57;;;4.10;;
8777;SDS011;4425;50.872;4.712;2023-03-11T01:16:15;11.50;;;5.30;;
8777;SDS011;4425;50.872;4.712;2023-03-11T01:18:43;9.65;;;4.00;;
8777;SDS011;4425;50.872;4.712;2023-03-11T01:21:11;9.88;;;4.20;;
8777;SDS011;4425;50.872;4.712;2023-03-11T01:23:39;9.88;;;4.05;;
8777;SDS011;4425;50.872;4.712;2023-03-11T01:26:07;8.73;;;4.03;;
8777;SDS011;4425;50.872;4.712;2023-03-11T01:28:34;10.13;;;4.20;;
8777;SDS011;4425;50.872;4.712;2023-03-11T01:31:03;11.38;;;4.18;;
8777;SDS011;4425;50.872;4.712;2023-03-11T01:33:30;11.07;;;4.03;;
8777;SDS011;4425;50.872;4.712;2023-03-11T01:35:57;8.03;;;3.90;;
8777;SDS011;4425;50.872;4.712;2023-03-11T01:38:24;6.55;;;3.60;;
8777;SDS011;4425;50.872;4.712;2023-03-11T01:40:51;11.52;;;3.90;;
8777;SDS011;4425;50.872;4.712;2023-03-11T01:46:20;7.68;;;3.92;;
8777;SDS011;4425;50.872;4.712;2023-03-11T01:48:49;10.65;;;3.80;;
8777;SDS011;4425;50.872;4.712;2023-03-11T01:51:18;11.00;;;3.97;;
8777;SDS011;4425;50.872;4.712;2023-03-11T01:53:51;9.45;;;4.03;;
8777;SDS011;4425;50.872;4.712;2023-03-11T01:56:19;11.10;;;3.85;;
8777;SDS011;4425;50.872;4.712;2023-03-11T01:58:47;11.43;;;3.80;;
8777;SDS011;4425;50.872;4.712;2023-03-11T02:01:17;9.27;;;3.92;;
8777;SDS011;4425;50.872;4.712;2023-03-11T02:03:47;7.47;;;3.55;;
8777;SDS011;4425;50.872;4.712;2023-03-11T02:06:16;8.05;;;3.40;;
8777;SDS011;4425;50.872;4.712;2023-03-11T02:08:44;10.43;;;3.75;;
8777;SDS011;4425;50.872;4.712;2023-03-11T02:11:13;6.43;;;3.58;;
8777;SDS011;4425;50.872;4.712;2023-03-11T02:13:44;8.45;;;3.60;;
8777;SDS011;4425;50.872;4.712;2023-03-11T02:16:12;7.72;;;3.35;;
8777;SDS011;4425;50.872;4.712;2023-03-11T02:18:41;6.60;;;3.40;;
8777;SDS011;4425;50.872;4.712;2023-03-11T02:21:12;7.57;;;3.20;;
8777;SDS011;4425;50.872;4.712;2023-03-11T02:23:52;8.50;;;3.40;;
8777;SDS011;4425;50.872;4.712;2023-03-11T02:26:24;10.68;;;3.80;;
8777;SDS011;4425;50.872;4.712;2023-03-11T02:28:57;7.68;;;3.50;;
8777;SDS011;4425;50.872;4.712;2023-03-11T02:31:26;7.50;;;3.20;;
8777;SDS011;4425;50.872;4.712;2023-03-11T02:33:54;9.93;;;3.70;;
8777;SDS011;4425;50.872;4.712;2023-03-11T02:36:31;7.90;;;3.50;;
8777;SDS011;4425;50.872;4.712;2023-03-11T02:38:59;8.27;;;3.50;;
8777;SDS011;4425;50.872;4.712;2023-03-11T02:41:26;11.13;;;3.70;;
8777;SDS011;4425;50.872;4.712;2023-03-11T02:43:58;12.43;;;3.33;;
8777;SDS011;4425;50.872;4.712;2023-03-11T02:46:27;6.97;;;3.17;;
8777;SDS011;4425;50.872;4.712;2023-03-11T02:48:54;7.40;;;3.42;;
8777;SDS011;4425;50.872;4.712;2023-03-11T02:51:22;8.07;;;3.42;;
8777;SDS011;4425;50.872;4.712;2023-03-11T02:53:50;8.88;;;3.80;;
8777;SDS011;4425;50.872;4.712;2023-03-11T02:56:19;7.45;;;3.50;;
8777;SDS011;4425;50.872;4.712;2023-03-11T02:58:46;7.88;;;3.50;;
8777;SDS011;4425;50.872;4.712;2023-03-11T03:01:14;9.00;;;4.03;;
8777;SDS011;4425;50.872;4.712;2023-03-11T03:03:42;9.23;;;3.20;;
8777;SDS011;4425;50.872;4.712;2023-03-11T03:06:09;9.48;;;3.58;;
8777;SDS011;4425;50.872;4.712;2023-03-11T03:08:36;7.85;;;3.47;;
8777;SDS011;4425;50.872;4.712;2023-03-11T03:11:06;8.38;;;3.70;;
8777;SDS011;4425;50.872;4.712;2023-03-11T03:13:34;9.50;;;3.55;;
8777;SDS011;4425;50.872;4.712;2023-03-11T03:16:01;9.90;;;3.78;;
8777;SDS011;4425;50.872;4.712;2023-03-11T03:18:30;9.32;;;4.00;;
8777;SDS011;4425;50.872;4.712;2023-03-11T03:20:57;8.80;;;3.47;;
8777;SDS011;4425;50.872;4.712;2023-03-11T03:23:24;7.47;;;4.03;;
8777;SDS011;4425;50.872;4.712;2023-03-11T03:25:51;8.25;;;3.78;;
8777;SDS011;4425;50.872;4.712;2023-03-11T03:28:20;10.32;;;3.60;;
8777;SDS011;4425;50.872;4.712;2023-03-11T03:30:47;11.95;;;4.40;;
8777;SDS011;4425;50.872;4.712;2023-03-11T03:33:14;10.13;;;4.30;;
8777;SDS011;4425;50.872;4.712;2023-03-11T03:35:47;8.98;;;4.00;;
8777;SDS011;4425;50.872;4.712;2023-03-11T03:38:14;10.70;;;4.03;;
8777;SDS011;4425;50.872;4.712;2023-03-11T03:40:44;8.35;;;3.83;;
8777;SDS011;4425;50.872;4.712;2023-03-11T03:43:12;9.23;;;3.97;;
8777;SDS011;4425;50.872;4.712;2023-03-11T03:45:39;8.77;;;3.95;;
8777;SDS011;4425;50.872;4.712;2023-03-11T03:48:06;9.45;;;4.00;;
8777;SDS011;4425;50.872;4.712;2023-03-11T03:50:34;12.30;;;4.70;;
8777;SDS011;4425;50.872;4.712;2023-03-11T03:53:07;7.55;;;4.10;;
8777;SDS011;4425;50.872;4.712;2023-03-11T03:55:34;16.05;;;4.60;;
8777;SDS011;4425;50.872;4.712;2023-03-11T03:58:02;9.68;;;3.95;;
8777;SDS011;4425;50.872;4.712;2023-03-11T04:00:29;10.00;;;4.20;;
8777;SDS011;4425;50.872;4.712;2023-03-11T04:02:56;11.05;;;4.10;;
8777;SDS011;4425;50.872;4.712;2023-03-11T04:05:23;9.82;;;4.03;;
8777;SDS011;4425;50.872;4.712;2023-03-11T04:07:52;10.10;;;3.97;;
8777;SDS011;4425;50.872;4.712;2023-03-11T04:10:21;8.27;;;4.10;;
8777;SDS011;4425;50.872;4.712;2023-03-11T04:12:48;9.35;;;4.20;;
8777;SDS011;4425;50.872;4.712;2023-03-11T04:15:16;8.90;;;4.22;;
8777;SDS011;4425;50.872;4.712;2023-03-11T04:17:49;12.18;;;4.53;;
8777;SDS011;4425;50.872;4.712;2023-03-11T04:20:16;9.98;;;4.10;;
8777;SDS011;4425;50.872;4.712;2023-03-11T04:22:43;10.67;;;4.43;;
8777;SDS011;4425;50.872;4.712;2023-03-11T04:25:12;10.80;;;4.00;;
8777;SDS011;4425;50.872;4.712;2023-03-11T04:27:40;9.90;;;4.25;;
8777;SDS011;4425;50.872;4.712;2023-03-11T04:30:10;10.10;;;4.35;;
8777;SDS011;4425;50.872;4.712;2023-03-11T04:32:38;9.52;;;4.00;;
8777;SDS011;4425;50.872;4.712;2023-03-11T04:35:05;9.05;;;4.20;;
8777;SDS011;4425;50.872;4.712;2023-03-11T04:37:33;9.07;;;4.30;;
8777;SDS011;4425;50.872;4.712;2023-03-11T04:40:00;9.65;;;4.30;;
8777;SDS011;4425;50.872;4.712;2023-03-11T04:42:31;11.60;;;4.45;;
8777;SDS011;4425;50.872;4.712;2023-03-11T04:45:01;11.02;;;4.90;;
8777;SDS011;4425;50.872;4.712;2023-03-11T04:47:28;11.40;;;4.85;;
8777;SDS011;4425;50.872;4.712;2023-03-11T04:49:55;10.68;;;4.40;;
8777;SDS011;4425;50.872;4.712;2023-03-11T04:52:23;14.68;;;4.72;;
8777;SDS011;4425;50.872;4.712;2023-03-11T04:54:50;7.15;;;4.35;;
8777;SDS011;4425;50.872;4.712;2023-03-11T04:57:17;7.85;;;4.35;;
8777;SDS011;4425;50.872;4.712;2023-03-11T04:59:44;10.95;;;4.43;;
8777;SDS011;4425;50.872;4.712;2023-03-11T05:02:13;12.17;;;4.73;;
8777;SDS011;4425;50.872;4.712;2023-03-11T05:04:40;9.23;;;4.70;;
8777;SDS011;4425;50.872;4.712;2023-03-11T05:07:06;7.80;;;4.45;;
8777;SDS011;4425;50.872;4.712;2023-03-11T05:09:34;10.07;;;4.50;;
8777;SDS011;4425;50.872;4.712;2023-03-11T05:12:01;13.15;;;5.03;;
8777;SDS011;4425;50.872;4.712;2023-03-11T05:14:28;10.10;;;5.07;;
8777;SDS011;4425;50.872;4.712;2023-03-11T05:16:55;10.43;;;4.97;;
8777;SDS011;4425;50.872;4.712;2023-03-11T05:19:24;14.48;;;4.82;;
8777;SDS011;4425;50.872;4.712;2023-03-11T05:21:59;12.68;;;4.97;;
8777;SDS011;4425;50.872;4.712;2023-03-11T05:24:26;13.63;;;5.20;;
8777;SDS011;4425;50.872;4.712;2023-03-11T05:26:54;10.05;;;4.88;;
8777;SDS011;4425;50.872;4.712;2023-03-11T05:29:21;9.68;;;4.93;;
8777;SDS011;4425;50.872;4.712;2023-03-11T05:31:52;10.52;;;4.72;;
8777;SDS011;4425;50.872;4.712;2023-03-11T05:34:20;7.90;;;4.72;;
8777;SDS011;4425;50.872;4.712;2023-03-11T05:36:49;14.48;;;5.13;;
8777;SDS011;4425;50.872;4.712;2023-03-11T05:39:16;10.50;;;5.30;;
8777;SDS011;4425;50.872;4.712;2023-03-11T05:41:43;10.15;;;5.18;;
8777;SDS011;4425;50.872;4.712;2023-03-11T05:44:11;10.07;;;5.10;;
8777;SDS011;4425;50.872;4.712;2023-03-11T05:46:38;11.05;;;4.70;;
8777;SDS011;4425;50.872;4.712;2023-03-11T05:49:05;12.25;;;5.38;;
8777;SDS011;4425;50.872;4.712;2023-03-11T05:51:32;12.85;;;5.28;;
8777;SDS011;4425;50.872;4.712;2023-03-11T05:54:00;11.30;;;5.18;;
8777;SDS011;4425;50.872;4.712;2023-03-11T05:56:28;9.63;;;4.90;;
8777;SDS011;4425;50.872;4.712;2023-03-11T05:58:56;10.93;;;5.57;;
8777;SDS011;4425;50.872;4.712;2023-03-11T06:01:23;9.97;;;5.50;;
8777;SDS011;4425;50.872;4.712;2023-03-11T06:03:51;10.75;;;5.32;;
8777;SDS011;4425;50.872;4.712;2023-03-11T06:06:18;14.57;;;5.70;;
8777;SDS011;4425;50.872;4.712;2023-03-11T06:08:50;11.73;;;5.68;;
8777;SDS011;4425;50.872;4.712;2023-03-11T06:11:19;11.98;;;6.10;;
8777;SDS011;4425;50.872;4.712;2023-03-11T06:13:51;11.60;;;5.90;;
8777;SDS011;4425;50.872;4.712;2023-03-11T06:16:18;14.25;;;6.30;;
8777;SDS011;4425;50.872;4.712;2023-03-11T06:18:46;11.80;;;6.00;;
8777;SDS011;4425;50.872;4.712;2023-03-11T06:21:14;13.13;;;6.07;;
8777;SDS011;4425;50.872;4.712;2023-03-11T06:23:46;12.68;;;6.07;;
8777;SDS011;4425;50.872;4.712;2023-03-11T06:26:14;15.82;;;6.60;;
8777;SDS011;4425;50.872;4.712;2023-03-11T06:28:45;15.38;;;6.82;;
8777;SDS011;4425;50.872;4.712;2023-03-11T06:31:17;14.57;;;6.32;;
8777;SDS011;4425;50.872;4.712;2023-03-11T06:33:45;16.20;;;6.30;;
8777;SDS011;4425;50.872;4.712;2023-03-11T06:36:13;13.98;;;6.38;;
8777;SDS011;4425;50.872;4.712;2023-03-11T06:38:41;13.80;;;6.90;;
8777;SDS011;4425;50.872;4.712;2023-03-11T06:41:11;12.27;;;6.50;;
8777;SDS011;4425;50.872;4.712;2023-03-11T06:43:38;15.27;;;7.25;;
8777;SDS011;4425;50.872;4.712;2023-03-11T06:46:10;13.85;;;7.40;;
8777;SDS011;4425;50.872;4.712;2023-03-11T06:48:38;15.35;;;7.30;;
8777;SDS011;4425;50.872;4.712;2023-03-11T06:51:06;10.57;;;6.65;;
8777;SDS011;4425;50.872;4.712;2023-03-11T06:53:35;13.20;;;6.47;;
8777;SDS011;4425;50.872;4.712;2023-03-11T06:56:03;12.00;;;6.22;;
8777;SDS011;4425;50.872;4.712;2023-03-11T06:58:32;10.30;;;6.20;;
8777;SDS011;4425;50.872;4.712;2023-03-11T07:01:00;13.55;;;6.18;;
8777;SDS011;4425;50.872;4.712;2023-03-11T07:03:33;13.70;;;6.13;;
8777;SDS011;4425;50.872;4.712;2023-03-11T07:06:01;12.48;;;5.97;;
8777;SDS011;4425;50.872;4.712;2023-03-11T07:08:29;14.68;;;6.35;;
8777;SDS011;4425;50.872;4.712;2023-03-11T07:11:00;12.10;;;5.93;;
8777;SDS011;4425;50.872;4.712;2023-03-11T07:13:29;13.68;;;5.82;;
8777;SDS011;4425;50.872;4.712;2023-03-11T07:16:00;11.88;;;6.03;;
8777;SDS011;4425;50.872;4.712;2023-03-11T07:18:27;14.15;;;6.03;;
8777;SDS011;4425;50.872;4.712;2023-03-11T07:20:56;14.07;;;6.43;;
8777;SDS011;4425;50.872;4.712;2023-03-11T07:23:24;12.05;;;6.32;;
8777;SDS011;4425;50.872;4.712;2023-03-11T07:25:53;12.03;;;6.10;;
8777;SDS011;4425;50.872;4.712;2023-03-11T07:28:21;11.90;;;6.13;;
8777;SDS011;4425;50.872;4.712;2023-03-11T07:30:50;15.55;;;6.72;;
8777;SDS011;4425;50.872;4.712;2023-03-11T07:33:20;12.88;;;6.15;;
8777;SDS011;4425;50.872;4.712;2023-03-11T07:35:52;11.67;;;5.90;;
8777;SDS011;4425;50.872;4.712;2023-03-11T07:38:20;11.27;;;5.30;;
8777;SDS011;4425;50.872;4.712;2023-03-11T07:40:47;8.00;;;4.90;;
8777;SDS011;4425;50.872;4.712;2023-03-11T07:43:23;10.05;;;4.97;;
8777;SDS011;4425;50.872;4.712;2023-03-11T07:45:50;10.35;;;5.05;;
8777;SDS011;4425;50.872;4.712;2023-03-11T07:48:21;7.60;;;4.80;;
8777;SDS011;4425;50.872;4.712;2023-03-11T07:50:48;11.13;;;5.22;;
8777;SDS011;4425;50.872;4.712;2023-03-11T07:53:16;10.47;;;5.73;;
8777;SDS011;4425;50.872;4.712;2023-03-11T07:55:44;9.60;;;5.20;;
8777;SDS011;4425;50.872;4.712;2023-03-11T07:58:11;10.82;;;4.80;;
8777;SDS011;4425;50.872;4.712;2023-03-11T08:00:38;8.98;;;4.93;;
8777;SDS011;4425;50.872;4.712;2023-03-11T08:03:05;11.52;;;5.20;;
8777;SDS011;4425;50.872;4.712;2023-03-11T08:05:32;8.07;;;4.82;;
8777;SDS011;4425;50.872;4.712;2023-03-11T08:07:59;8.90;;;5.10;;
8777;SDS011;4425;50.872;4.712;2023-03-11T08:10:28;8.77;;;5.05;;
8777;SDS011;4425;50.872;4.712;2023-03-11T08:12:56;11.73;;;5.38;;
8777;SDS011;4425;50.872;4.712;2023-03-11T08:15:23;12.93;;;5.05;;
8777;SDS011;4425;50.872;4.712;2023-03-11T08:17:50;8.63;;;4.90;;
8777;SDS011;4425;50.872;4.712;2023-03-11T08:20:20;10.88;;;5.05;;
8777;SDS011;4425;50.872;4.712;2023-03-11T08:22:48;8.80;;;5.07;;
8777;SDS011;4425;50.872;4.712;2023-03-11T08:25:15;9.10;;;4.97;;
8777;SDS011;4425;50.872;4.712;2023-03-11T08:27:47;10.87;;;4.97;;
8777;SDS011;4425;50.872;4.712;2023-03-11T08:30:14;8.95;;;4.85;;
8777;SDS011;4425;50.872;4.712;2023-03-11T08:32:41;12.27;;;5.13;;
8777;SDS011;4425;50.872;4.712;2023-03-11T08:35:09;10.88;;;5.20;;
8777;SDS011;4425;50.872;4.712;2023-03-11T08:37:36;9.40;;;5.03;;
8777;SDS011;4425;50.872;4.712;2023-03-11T08:40:05;9.55;;;5.18;;
8777;SDS011;4425;50.872;4.712;2023-03-11T08:42:34;10.45;;;5.25;;
8777;SDS011;4425;50.872;4.712;2023-03-11T08:45:03;9.75;;;4.90;;
8777;SDS011;4425;50.872;4.712;2023-03-11T08:47:32;10.07;;;5.05;;
8777;SDS011;4425;50.872;4.712;2023-03-11T08:50:00;9.90;;;5.60;;
8777;SDS011;4425;50.872;4.712;2023-03-11T08:52:27;12.67;;;5.00;;
8777;SDS011;4425;50.872;4.712;2023-03-11T08:54:54;9.07;;;4.80;;
8777;SDS011;4425;50.872;4.712;2023-03-11T08:57:21;9.17;;;4.30;;
8777;SDS011;4425;50.872;4.712;2023-03-11T08:59:48;7.70;;;5.13;;
8777;SDS011;4425;50.872;4.712;2023-03-11T09:02:16;11.57;;;4.03;;
8777;SDS011;4425;50.872;4.712;2023-03-11T09:04:43;9.67;;;4.10;;
8777;SDS011;4425;50.872;4.712;2023-03-11T09:07:10;10.23;;;4.50;;
8777;SDS011;4425;50.872;4.712;2023-03-11T09:09:39;8.80;;;4.00;;
8777;SDS011;4425;50.872;4.712;2023-03-11T09:12:07;7.20;;;3.90;;
8777;SDS011;4425;50.872;4.712;2023-03-11T09:14:38;7.78;;;4.28;;
8777;SDS011;4425;50.872;4.712;2023-03-11T09:17:05;8.63;;;3.40;;
8777;SDS011;4425;50.872;4.712;2023-03-11T09:19:35;9.13;;;2.90;;
8777;SDS011;4425;50.872;4.712;2023-03-11T09:22:03;5.82;;;2.50;;
8777;SDS011;4425;50.872;4.712;2023-03-11T09:24:31;6.18;;;2.80;;
8777;SDS011;4425;50.872;4.712;2023-03-11T09:27:00;7.38;;;3.03;;
8777;SDS011;4425;50.872;4.712;2023-03-11T09:29:28;7.70;;;2.97;;
8777;SDS011;4425;50.872;4.712;2023-03-11T09:31:58;6.93;;;2.30;;
8777;SDS011;4425;50.872;4.712;2023-03-11T09:34:25;6.53;;;2.17;;
8777;SDS011;4425;50.872;4.712;2023-03-11T09:37:04;7.43;;;1.90;;
8777;SDS011;4425;50.872;4.712;2023-03-11T09:39:34;4.00;;;1.60;;
8777;SDS011;4425;50.872;4.712;2023-03-11T09:42:03;12.77;;;2.30;;
8777;SDS011;4425;50.872;4.712;2023-03-11T09:44:44;3.88;;;1.92;;
8777;SDS011;4425;50.872;4.712;2023-03-11T09:47:23;7.00;;;2.20;;
8777;SDS011;4425;50.872;4.712;2023-03-11T09:50:07;10.45;;;2.58;;
8777;SDS011;4425;50.872;4.712;2023-03-11T09:52:50;7.60;;;2.35;;
8777;SDS011;4425;50.872;4.712;2023-03-11T09:55:31;5.95;;;2.15;;
8777;SDS011;4425;50.872;4.712;2023-03-11T09:58:08;5.90;;;2.25;;
8777;SDS011;4425;50.872;4.712;2023-03-11T10:00:41;5.18;;;2.30;;
8777;SDS011;4425;50.872;4.712;2023-03-11T10:06:03;5.97;;;2.03;;
8777;SDS011;4425;50.872;4.712;2023-03-11T10:08:42;4.28;;;2.10;;
8777;SDS011;4425;50.872;4.712;2023-03-11T10:11:16;5.28;;;2.17;;
8777;SDS011;4425;50.872;4.712;2023-03-11T10:13:55;4.38;;;2.20;;
8777;SDS011;4425;50.872;4.712;2023-03-11T10:16:33;6.45;;;2.08;;
8777;SDS011;4425;50.872;4.712;2023-03-11T10:19:10;6.07;;;2.25;;
8777;SDS011;4425;50.872;4.712;2023-03-11T10:21:49;5.65;;;2.20;;
8777;SDS011;4425;50.872;4.712;2023-03-11T10:24:35;7.53;;;2.10;;
8777;SDS011;4425;50.872;4.712;2023-03-11T10:27:13;5.22;;;1.92;;
8777;SDS011;4425;50.872;4.712;2023-03-11T10:29:47;5.63;;;2.03;;
8777;SDS011;4425;50.872;4.712;2023-03-11T10:32:22;4.78;;;1.98;;
8777;SDS011;4425;50.872;4.712;2023-03-11T10:34:53;5.78;;;2.00;;
8777;SDS011;4425;50.872;4.712;2023-03-11T10:37:25;5.33;;;1.93;;
8777;SDS011;4425;50.872;4.712;2023-03-11T10:39:57;5.63;;;2.20;;
8777;SDS011;4425;50.872;4.712;2023-03-11T10:42:34;6.82;;;2.05;;
8777;SDS011;4425;50.872;4.712;2023-03-11T10:45:04;6.82;;;2.22;;
8777;SDS011;4425;50.872;4.712;2023-03-11T10:47:39;4.88;;;2.00;;
8777;SDS011;4425;50.872;4.712;2023-03-11T10:50:07;6.68;;;2.17;;
8777;SDS011;4425;50.872;4.712;2023-03-11T10:52:41;4.63;;;2.00;;
8777;SDS011;4425;50.872;4.712;2023-03-11T10:55:34;7.72;;;2.38;;
8777;SDS011;4425;50.872;4.712;2023-03-11T10:58:11;6.65;;;2.20;;
8777;SDS011;4425;50.872;4.712;2023-03-11T11:00:39;5.55;;;2.05;;
8777;SDS011;4425;50.872;4.712;2023-03-11T11:03:11;9.90;;;2.30;;
8777;SDS011;4425;50.872;4.712;2023-03-11T11:05:48;5.88;;;1.95;;
8777;SDS011;4425;50.872;4.712;2023-03-11T11:08:24;6.97;;;2.13;;
8777;SDS011;4425;50.872;4.712;2023-03-11T11:10:54;12.13;;;2.40;;
8777;SDS011;4425;50.872;4.712;2023-03-11T11:13:24;7.07;;;2.28;;
8777;SDS011;4425;50.872;4.712;2023-03-11T11:15:59;4.43;;;1.95;;
8777;SDS011;4425;50.872;4.712;2023-03-11T11:18:43;8.38;;;1.90;;
8777;SDS011;4425;50.872;4.712;2023-03-11T11:21:12;4.95;;;2.10;;
8777;SDS011;4425;50.872;4.712;2023-03-11T11:23:45;4.47;;;1.77;;
8777;SDS011;4425;50.872;4.712;2023-03-11T11:26:19;18.15;;;2.63;;
8777;SDS011;4425;50.872;4.712;2023-03-11T11:28:51;4.90;;;1.88;;
8777;SDS011;4425;50.872;4.712;2023-03-11T11:31:32;6.82;;;1.98;;
8777;SDS011;4425;50.872;4.712;2023-03-11T11:34:01;7.53;;;1.80;;
8777;SDS011;4425;50.872;4.712;2023-03-11T11:36:31;7.25;;;1.83;;
8777;SDS011;4425;50.872;4.712;2023-03-11T11:39:05;5.90;;;1.83;;
8777;SDS011;4425;50.872;4.712;2023-03-11T11:41:44;5.07;;;2.00;;
8777;SDS011;4425;50.872;4.712;2023-03-11T11:44:14;6.15;;;1.70;;
8777;SDS011;4425;50.872;4.712;2023-03-11T11:46:46;5.43;;;2.10;;
8777;SDS011;4425;50.872;4.712;2023-03-11T11:49:20;6.20;;;2.00;;
8777;SDS011;4425;50.872;4.712;2023-03-11T11:51:52;4.80;;;1.95;;
8777;SDS011;4425;50.872;4.712;2023-03-11T11:54:26;6.30;;;2.08;;
8777;SDS011;4425;50.872;4.712;2023-03-11T11:57:00;5.57;;;1.87;;
8777;SDS011;4425;50.872;4.712;2023-03-11T11:59:36;6.05;;;1.83;;
8777;SDS011;4425;50.872;4.712;2023-03-11T12:02:06;11.15;;;2.63;;
8777;SDS011;4425;50.872;4.712;2023-03-11T12:04:49;5.32;;;1.83;;
8777;SDS011;4425;50.872;4.712;2023-03-11T12:07:24;5.95;;;2.30;;
8777;SDS011;4425;50.872;4.712;2023-03-11T12:09:59;5.85;;;2.00;;
8777;SDS011;4425;50.872;4.712;2023-03-11T12:12:40;7.15;;;2.15;;
8777;SDS011;4425;50.872;4.712;2023-03-11T12:15:14;4.78;;;1.80;;
8777;SDS011;4425;50.872;4.712;2023-03-11T12:17:46;4.70;;;2.05;;
8777;SDS011;4425;50.872;4.712;2023-03-11T12:20:17;5.35;;;2.10;;
8777;SDS011;4425;50.872;4.712;2023-03-11T12:23:00;12.13;;;2.60;;
8777;SDS011;4425;50.872;4.712;2023-03-11T12:25:47;4.82;;;1.90;;
8777;SDS011;4425;50.872;4.712;2023-03-11T12:28:35;9.03;;;2.40;;
8777;SDS011;4425;50.872;4.712;2023-03-11T12:31:10;4.68;;;1.90;;
8777;SDS011;4425;50.872;4.712;2023-03-11T12:33:39;6.38;;;2.05;;
8777;SDS011;4425;50.872;4.712;2023-03-11T12:36:18;4.32;;;1.92;;
8777;SDS011;4425;50.872;4.712;2023-03-11T12:38:50;6.18;;;2.08;;
8777;SDS011;4425;50.872;4.712;2023-03-11T12:41:31;5.40;;;2.30;;
8777;SDS011;4425;50.872;4.712;2023-03-11T12:44:12;7.13;;;2.00;;
8777;SDS011;4425;50.872;4.712;2023-03-11T12:49:46;5.50;;;2.08;;
8777;SDS011;4425;50.872;4.712;2023-03-11T12:58:18;4.43;;;2.05;;
8777;SDS011;4425;50.872;4.712;2023-03-11T13:04:03;6.65;;;2.10;;
8777;SDS011;4425;50.872;4.712;2023-03-11T13:06:53;5.97;;;2.10;;
8777;SDS011;4425;50.872;4.712;2023-03-11T13:09:31;6.82;;;2.00;;
8777;SDS011;4425;50.872;4.712;2023-03-11T13:11:58;5.60;;;2.07;;
8777;SDS011;4425;50.872;4.712;2023-03-11T13:14:27;9.80;;;2.40;;
8777;SDS011;4425;50.872;4.712;2023-03-11T13:17:15;4.63;;;1.92;;
8777;SDS011;4425;50.872;4.712;2023-03-11T13:19:55;4.60;;;2.13;;
8777;SDS011;4425;50.872;4.712;2023-03-11T13:22:42;5.55;;;2.00;;
8777;SDS011;4425;50.872;4.712;2023-03-11T13:25:38;7.75;;;2.10;;
8777;SDS011;4425;50.872;4.712;2023-03-11T13:28:13;6.78;;;2.00;;
8777;SDS011;4425;50.872;4.712;2023-03-11T13:31:07;3.50;;;2.20;;
8777;SDS011;4425;50.872;4.712;2023-03-11T13:33:53;5.95;;;2.13;;
8777;SDS011;4425;50.872;4.712;2023-03-11T13:36:31;5.20;;;1.90;;
8777;SDS011;4425;50.872;4.712;2023-03-11T13:39:11;4.80;;;1.90;;
8777;SDS011;4425;50.872;4.712;2023-03-11T13:41:48;5.10;;;1.95;;
8777;SDS011;4425;50.872;4.712;2023-03-11T13:44:19;5.88;;;1.77;;
8777;SDS011;4425;50.872;4.712;2023-03-11T13:46:54;8.03;;;3.27;;
8777;SDS011;4425;50.872;4.712;2023-03-11T13:49:29;6.07;;;1.67;;
8777;SDS011;4425;50.872;4.712;2023-03-11T13:52:01;5.07;;;1.75;;
8777;SDS011;4425;50.872;4.712;2023-03-11T13:54:34;4.68;;;1.85;;
8777;SDS011;4425;50.872;4.712;2023-03-11T13:57:20;3.83;;;1.75;;
8777;SDS011;4425;50.872;4.712;2023-03-11T13:59:51;3.72;;;1.55;;
8777;SDS011;4425;50.872;4.712;2023-03-11T14:02:20;6.50;;;1.60;;
8777;SDS011;4425;50.872;4.712;2023-03-11T14:04:51;2.67;;;1.70;;
8777;SDS011;4425;50.872;4.712;2023-03-11T14:07:27;3.90;;;1.65;;
8777;SDS011;4425;50.872;4.712;2023-03-11T14:13:15;3.70;;;1.75;;
8777;SDS011;4425;50.872;4.712;2023-03-11T14:15:44;4.15;;;1.80;;
8777;SDS011;4425;50.872;4.712;2023-03-11T14:18:30;3.00;;;1.67;;
8777;SDS011;4425;50.872;4.712;2023-03-11T14:21:04;3.05;;;1.60;;
8777;SDS011;4425;50.872;4.712;2023-03-11T14:23:41;5.70;;;1.88;;
8777;SDS011;4425;50.872;4.712;2023-03-11T14:26:14;3.07;;;1.70;;
8777;SDS011;4425;50.872;4.712;2023-03-11T14:28:45;7.82;;;5.22;;
8777;SDS011;4425;50.872;4.712;2023-03-11T14:31:28;5.15;;;1.95;;
8777;SDS011;4425;50.872;4.712;2023-03-11T14:33:58;4.57;;;2.00;;
8777;SDS011;4425;50.872;4.712;2023-03-11T14:36:30;7.03;;;2.28;;
8777;SDS011;4425;50.872;4.712;2023-03-11T14:39:20;4.70;;;1.80;;
8777;SDS011;4425;50.872;4.712;2023-03-11T14:41:55;4.95;;;2.10;;
8777;SDS011;4425;50.872;4.712;2023-03-11T14:44:27;3.15;;;1.80;;
8777;SDS011;4425;50.872;4.712;2023-03-11T14:47:04;4.03;;;1.90;;
8777;SDS011;4425;50.872;4.712;2023-03-11T14:49:36;4.22;;;1.60;;
8777;SDS011;4425;50.872;4.712;2023-03-11T14:52:09;6.15;;;1.85;;
8777;SDS011;4425;50.872;4.712;2023-03-11T14:54:41;5.75;;;1.85;;
8777;SDS011;4425;50.872;4.712;2023-03-11T14:57:13;7.65;;;1.88;;
8777;SDS011;4425;50.872;4.712;2023-03-11T14:59:45;3.85;;;1.90;;
8777;SDS011;4425;50.872;4.712;2023-03-11T15:05:08;5.50;;;1.88;;
8777;SDS011;4425;50.872;4.712;2023-03-11T15:07:43;4.18;;;1.83;;
8777;SDS011;4425;50.872;4.712;2023-03-11T15:10:11;4.60;;;2.08;;
8777;SDS011;4425;50.872;4.712;2023-03-11T15:12:40;3.10;;;1.70;;
8777;SDS011;4425;50.872;4.712;2023-03-11T15:15:19;3.85;;;1.90;;
8777;SDS011;4425;50.872;4.712;2023-03-11T15:17:51;3.72;;;1.73;;
8777;SDS011;4425;50.872;4.712;2023-03-11T15:20:23;4.35;;;1.73;;
8777;SDS011;4425;50.872;4.712;2023-03-11T15:22:56;5.13;;;1.90;;
8777;SDS011;4425;50.872;4.712;2023-03-11T15:25:26;6.72;;;2.30;;
8777;SDS011;4425;50.872;4.712;2023-03-11T15:27:55;5.75;;;1.83;;
8777;SDS011;4425;50.872;4.712;2023-03-11T15:30:23;4.78;;;2.10;;
8777;SDS011;4425;50.872;4.712;2023-03-11T15:32:52;5.75;;;2.00;;
8777;SDS011;4425;50.872;4.712;2023-03-11T15:35:28;5.10;;;1.90;;
8777;SDS011;4425;50.872;4.712;2023-03-11T15:38:18;5.35;;;2.22;;
8777;SDS011;4425;50.872;4.712;2023-03-11T15:40:50;4.28;;;2.13;;
8777;SDS011;4425;50.872;4.712;2023-03-11T15:43:19;8.93;;;3.15;;
8777;SDS011;4425;50.872;4.712;2023-03-11T15:45:49;6.82;;;2.65;;
8777;SDS011;4425;50.872;4.712;2023-03-11T15:48:19;10.82;;;3.15;;
8777;SDS011;4425;50.872;4.712;2023-03-11T15:50:46;7.22;;;2.40;;
8777;SDS011;4425;50.872;4.712;2023-03-11T15:53:17;7.43;;;2.65;;
8777;SDS011;4425;50.872;4.712;2023-03-11T15:55:45;6.50;;;2.30;;
8777;SDS011;4425;50.872;4.712;2023-03-11T15:58:14;4.43;;;1.95;;